createdAt,value
2018-06-04T00:01:04.912Z,99.90
2018-06-04T00:03:35.680Z,99.90
2018-06-04T00:06:06.357Z,99.90
2018-06-04T00:08:37.039Z,99.90
2018-06-04T00:11:07.817Z,99.90
2018-06-04T00:13:38.493Z,99.90
2018-06-04T00:16:09.183Z,99.90
2018-06-04T00:18:59.693Z,99.90
2018-06-04T00:21:30.391Z,99.90
2018-06-04T00:24:01.191Z,99.90
2018-06-04T00:26:31.935Z,99.90
2018-06-04T00:29:02.894Z,99.90
2018-06-04T00:31:33.975Z,99.90
2018-06-04T00:34:04.994Z,99.90
2018-06-04T00:36:35.955Z,99.90
2018-06-04T00:39:11.027Z,99.90
2018-06-04T00:41:42.038Z,99.90
2018-06-04T00:44:12.976Z,99.90
2018-06-04T00:46:44.011Z,99.90
2018-06-04T00:49:14.917Z,99.90
2018-06-04T00:51:45.711Z,99.90
2018-06-04T00:54:16.536Z,99.90
2018-06-04T00:56:47.214Z,99.90
2018-06-04T00:59:18.000Z,99.90
2018-06-04T01:01:48.672Z,99.90
2018-06-04T01:04:19.396Z,99.90
2018-06-04T01:06:50.233Z,99.90
2018-06-04T01:09:21.011Z,99.90
2018-06-04T01:11:51.800Z,99.90
2018-06-04T01:14:26.809Z,99.90
2018-06-04T01:16:57.972Z,99.90
2018-06-04T01:19:28.654Z,99.90
2018-06-04T01:21:59.482Z,99.90
2018-06-04T01:24:30.169Z,99.90
2018-06-04T01:27:00.915Z,99.90
2018-06-04T01:29:31.752Z,99.90
2018-06-04T01:32:02.579Z,99.90
2018-06-04T01:34:33.308Z,99.90
2018-06-04T01:37:04.046Z,99.90
2018-06-04T01:39:34.829Z,99.90
2018-06-04T01:42:05.624Z,99.90
2018-06-04T01:44:36.454Z,99.90
2018-06-04T01:47:07.231Z,99.90
2018-06-04T01:49:38.074Z,99.90
2018-06-04T01:52:08.542Z,99.90
2018-06-04T01:54:39.953Z,99.90
2018-06-04T01:57:11.335Z,99.90
2018-06-04T01:59:42.706Z,99.90
2018-06-04T02:02:14.000Z,99.90
2018-06-04T02:04:45.812Z,99.90
2018-06-04T02:07:17.175Z,99.90
2018-06-04T02:09:48.820Z,99.90
2018-06-04T02:12:19.964Z,99.90
2018-06-04T02:14:51.231Z,99.90
2018-06-04T02:17:22.759Z,99.90
2018-06-04T02:19:53.878Z,99.90
2018-06-04T02:22:25.026Z,99.90
2018-06-04T02:24:56.692Z,99.90
2018-06-04T02:27:27.901Z,99.90
2018-06-04T02:29:59.184Z,99.90
2018-06-04T02:32:30.273Z,99.90
2018-06-04T02:35:01.444Z,99.90
2018-06-04T02:37:33.012Z,99.90
2018-06-04T02:40:04.375Z,99.90
2018-06-04T02:42:35.489Z,99.90
2018-06-04T02:45:06.753Z,99.90
2018-06-04T02:47:38.014Z,99.90
2018-06-04T02:50:09.927Z,99.90
2018-06-04T02:52:42.356Z,99.90
2018-06-04T02:55:13.650Z,99.90
2018-06-04T02:57:44.792Z,99.90
2018-06-04T03:00:16.618Z,99.90
2018-06-04T03:02:48.001Z,99.90
2018-06-04T03:05:19.152Z,99.90
2018-06-04T03:07:51.065Z,99.90
2018-06-04T03:10:22.475Z,99.90
2018-06-04T03:12:53.598Z,99.90
2018-06-04T03:15:24.742Z,99.90
2018-06-04T03:17:55.812Z,99.90
2018-06-04T03:20:28.940Z,99.90
2018-06-04T03:23:00.118Z,99.90
2018-06-04T03:25:31.368Z,99.90
2018-06-04T03:28:02.672Z,99.90
2018-06-04T03:30:33.747Z,99.90
2018-06-04T03:33:04.918Z,99.90
2018-06-04T03:35:35.938Z,99.90
2018-06-04T03:38:08.387Z,99.90
2018-06-04T03:40:39.820Z,99.90
2018-06-04T03:43:11.265Z,99.90
2018-06-04T03:45:42.997Z,99.90
2018-06-04T03:48:14.372Z,99.90
2018-06-04T03:50:45.634Z,99.90
2018-06-04T03:53:17.118Z,99.90
2018-06-04T03:55:48.409Z,99.90
2018-06-04T03:58:19.652Z,99.90
2018-06-04T04:00:50.884Z,99.90
2018-06-04T04:03:22.352Z,99.90
2018-06-04T04:05:53.695Z,99.90
2018-06-04T04:08:24.890Z,99.90
2018-06-04T04:10:56.642Z,99.90
2018-06-04T04:13:27.944Z,99.90
2018-06-04T04:15:59.442Z,99.90
2018-06-04T04:18:30.647Z,99.90
2018-06-04T04:21:01.903Z,99.90
2018-06-04T04:23:33.045Z,99.90
2018-06-04T04:26:04.409Z,99.90
2018-06-04T04:28:35.519Z,99.90
2018-06-04T04:31:06.764Z,99.90
2018-06-04T04:33:37.983Z,99.90
2018-06-04T04:36:09.066Z,99.90
2018-06-04T04:38:40.576Z,99.70
2018-06-04T04:41:12.005Z,96.60
2018-06-04T04:43:43.195Z,93.60
2018-06-04T04:46:14.890Z,91.60
2018-06-04T04:48:46.383Z,89.50
2018-06-04T04:51:18.073Z,85.70
2018-06-04T04:53:49.653Z,81.70
2018-06-04T04:56:20.807Z,79.40
2018-06-04T04:58:52.126Z,78.00
2018-06-04T05:03:54.303Z,73.80
2018-06-04T05:06:25.658Z,72.00
2018-06-04T05:08:57.261Z,72.00
2018-06-04T05:11:28.530Z,69.60
2018-06-04T05:13:59.741Z,69.00
2018-06-04T05:16:31.250Z,68.10
2018-06-04T05:19:02.439Z,67.50
2018-06-04T05:21:34.541Z,67.00
2018-06-04T05:24:06.180Z,66.30
2018-06-04T05:26:37.663Z,63.10
2018-06-04T05:29:09.535Z,62.30
2018-06-04T05:31:40.883Z,62.20
2018-06-04T05:34:12.369Z,62.50
2018-06-04T05:36:43.650Z,62.60
2018-06-04T05:39:15.293Z,62.60
2018-06-04T05:41:47.037Z,62.80
2018-06-04T05:44:18.969Z,63.40
2018-06-04T05:46:50.143Z,63.70
2018-06-04T05:49:21.464Z,62.60
2018-06-04T05:51:52.318Z,63.20
2018-06-04T05:54:23.150Z,62.40
2018-06-04T05:56:54.135Z,62.80
2018-06-04T05:59:25.380Z,63.70
2018-06-04T06:01:55.870Z,64.80
2018-06-04T06:04:26.677Z,65.00
2018-06-04T06:06:57.609Z,65.70
2018-06-04T06:09:28.670Z,65.90
2018-06-04T06:11:59.583Z,65.70
2018-06-04T06:14:30.289Z,66.40
2018-06-04T06:17:01.182Z,66.00
2018-06-04T06:19:31.894Z,66.20
2018-06-04T06:22:02.665Z,66.40
2018-06-04T06:24:33.607Z,66.20
2018-06-04T06:27:04.440Z,64.80
2018-06-04T06:32:30.030Z,63.30
2018-06-04T06:35:00.785Z,63.80
2018-06-04T06:37:31.627Z,63.80
2018-06-04T06:40:02.436Z,64.00
2018-06-04T06:42:33.114Z,65.00
2018-06-04T06:45:03.917Z,65.30
2018-06-04T06:47:34.646Z,66.70
2018-06-04T06:50:05.619Z,67.60
2018-06-04T06:52:36.506Z,66.40
2018-06-04T06:55:07.275Z,66.80
2018-06-04T06:57:38.186Z,66.40
2018-06-04T07:00:08.935Z,66.90
2018-06-04T07:02:39.744Z,68.00
2018-06-04T07:05:10.578Z,68.00
2018-06-04T07:07:41.423Z,67.90
2018-06-04T07:10:12.075Z,68.00
2018-06-04T07:12:42.909Z,67.50
2018-06-04T07:15:13.748Z,66.00
2018-06-04T07:17:44.365Z,64.10
2018-06-04T07:20:15.089Z,63.30
2018-06-04T07:22:45.825Z,62.60
2018-06-04T07:25:16.684Z,63.20
2018-06-04T07:27:47.516Z,64.10
2018-06-04T07:30:18.306Z,64.40
2018-06-04T07:32:49.064Z,63.40
2018-06-04T07:35:19.831Z,63.40
2018-06-04T07:37:50.583Z,63.10
2018-06-04T07:40:21.241Z,62.60
2018-06-04T07:42:51.867Z,62.20
2018-06-04T07:45:22.614Z,60.40
2018-06-04T07:47:53.507Z,59.60
2018-06-04T07:50:24.332Z,59.40
2018-06-04T07:52:55.130Z,58.60
2018-06-04T07:55:25.991Z,57.30
2018-06-04T07:57:56.728Z,56.50
2018-06-04T08:00:27.465Z,56.30
2018-06-04T08:02:58.289Z,57.00
2018-06-04T08:05:29.004Z,57.50
2018-06-04T08:08:00.209Z,57.60
2018-06-04T08:10:30.883Z,57.80
2018-06-04T08:13:01.742Z,58.30
2018-06-04T08:15:32.499Z,57.00
2018-06-04T08:18:03.278Z,57.40
2018-06-04T08:20:34.039Z,55.10
2018-06-04T08:23:04.703Z,54.60
2018-06-04T08:25:35.447Z,53.70
2018-06-04T08:28:06.298Z,53.40
2018-06-04T08:30:37.099Z,51.60
2018-06-04T08:33:07.903Z,50.70
2018-06-04T08:35:38.688Z,50.20
2018-06-04T08:38:09.416Z,50.70
2018-06-04T08:40:40.236Z,50.20
2018-06-04T08:43:11.051Z,50.50
2018-06-04T08:45:41.760Z,51.20
2018-06-04T08:48:12.555Z,51.40
2018-06-04T08:50:43.372Z,50.80
2018-06-04T08:53:14.111Z,51.50
2018-06-04T08:55:44.875Z,52.20
2018-06-04T08:58:15.644Z,51.50
2018-06-04T09:00:46.391Z,52.60
2018-06-04T09:03:17.064Z,52.30
2018-06-04T09:05:47.671Z,52.10
2018-06-04T09:08:18.333Z,56.50
2018-06-04T09:10:49.113Z,55.60
2018-06-04T09:15:49.975Z,55.60
2018-06-04T09:18:20.711Z,56.00
2018-06-04T09:20:51.502Z,56.10
2018-06-04T09:23:22.254Z,55.60
2018-06-04T09:25:52.974Z,55.50
2018-06-04T09:28:23.843Z,54.80
2018-06-04T09:30:54.621Z,54.30
2018-06-04T09:33:25.338Z,53.70
2018-06-04T09:35:56.184Z,53.70
2018-06-04T09:38:26.959Z,53.00
2018-06-04T09:43:27.949Z,51.30
2018-06-04T09:45:58.576Z,50.60
2018-06-04T09:48:29.203Z,50.10
2018-06-04T09:51:00.078Z,48.70
2018-06-04T09:53:30.766Z,49.00
2018-06-04T09:56:01.552Z,48.50
2018-06-04T09:58:32.410Z,47.40
2018-06-04T10:01:16.844Z,46.40
2018-06-04T10:03:47.668Z,46.50
2018-06-04T10:06:18.401Z,46.50
2018-06-04T10:08:49.266Z,46.40
2018-06-04T10:11:20.151Z,46.20
2018-06-04T10:13:50.830Z,47.80
2018-06-04T10:16:21.653Z,48.60
2018-06-04T10:18:52.543Z,49.90
2018-06-04T10:21:23.224Z,49.30
2018-06-04T10:23:53.978Z,49.00
2018-06-04T10:26:24.664Z,49.10
2018-06-04T10:28:55.436Z,48.60
2018-06-04T10:31:26.252Z,49.30
2018-06-04T10:33:56.917Z,50.30
2018-06-04T10:36:27.635Z,49.40
2018-06-04T10:38:58.490Z,49.20
2018-06-04T10:41:29.249Z,48.40
2018-06-04T10:43:59.940Z,46.50
2018-06-04T10:46:30.805Z,45.40
2018-06-04T10:49:01.541Z,45.30
2018-06-04T10:51:32.246Z,46.00
2018-06-04T10:54:03.129Z,45.40
2018-06-04T10:56:33.913Z,44.90
2018-06-04T11:01:34.784Z,43.40
2018-06-04T11:04:05.523Z,43.70
2018-06-04T11:06:36.208Z,43.60
2018-06-04T11:09:09.237Z,43.30
2018-06-04T11:11:40.072Z,43.80
2018-06-04T11:14:10.952Z,42.50
2018-06-04T11:16:41.748Z,42.10
2018-06-04T11:19:12.594Z,41.50
2018-06-04T11:21:43.382Z,41.40
2018-06-04T11:24:14.168Z,41.70
2018-06-04T11:26:45.013Z,42.00
2018-06-04T11:29:15.677Z,42.20
2018-06-04T11:31:46.515Z,42.30
2018-06-04T11:34:17.239Z,41.50
2018-06-04T11:36:48.012Z,41.00
2018-06-04T11:39:18.725Z,41.80
2018-06-04T11:41:49.458Z,41.80
2018-06-04T11:44:20.271Z,41.80
2018-06-04T11:46:50.927Z,41.40
2018-06-04T11:49:21.789Z,42.10
2018-06-04T11:51:52.612Z,44.30
2018-06-04T11:54:23.366Z,44.90
2018-06-04T11:56:54.091Z,44.80
2018-06-04T11:59:24.797Z,44.70
2018-06-04T12:01:55.508Z,44.30
2018-06-04T12:04:26.320Z,44.20
2018-06-04T12:06:57.066Z,43.70
2018-06-04T12:09:27.715Z,42.00
2018-06-04T12:11:58.474Z,42.50
2018-06-04T12:14:29.148Z,43.10
2018-06-04T12:16:59.883Z,42.60
2018-06-04T12:19:30.779Z,42.20
2018-06-04T12:22:01.641Z,42.10
2018-06-04T12:24:32.426Z,41.70
2018-06-04T12:27:03.194Z,39.30
2018-06-04T12:29:33.960Z,39.80
2018-06-04T12:32:04.699Z,40.10
2018-06-04T12:34:36.264Z,40.20
2018-06-04T12:37:06.919Z,40.00
2018-06-04T12:39:37.735Z,39.80
2018-06-04T12:42:08.482Z,39.30
2018-06-04T12:44:39.305Z,39.80
2018-06-04T12:47:09.960Z,39.90
2018-06-04T12:49:42.844Z,39.60
2018-06-04T12:52:13.602Z,39.30
2018-06-04T12:54:44.433Z,38.60
2018-06-04T12:57:16.259Z,38.60
2018-06-04T12:59:46.980Z,38.90
2018-06-04T13:02:17.779Z,39.00
2018-06-04T13:04:48.558Z,38.90
2018-06-04T13:07:19.335Z,39.50
2018-06-04T13:09:50.145Z,40.20
2018-06-04T13:12:20.960Z,40.40
2018-06-04T13:14:51.776Z,40.00
2018-06-04T13:17:22.559Z,39.90
2018-06-04T13:19:53.280Z,39.30
2018-06-04T13:22:24.072Z,39.10
2018-06-04T13:24:54.743Z,39.40
2018-06-04T13:27:25.543Z,39.60
2018-06-04T13:29:56.247Z,38.90
2018-06-04T13:32:26.939Z,39.00
2018-06-04T13:34:57.735Z,39.00
2018-06-04T13:37:28.460Z,38.20
2018-06-04T13:39:59.310Z,38.40
2018-06-04T13:42:30.007Z,38.30
2018-06-04T13:45:00.771Z,38.00
2018-06-04T13:47:31.512Z,38.10
2018-06-04T13:50:02.220Z,37.70
2018-06-04T13:52:32.386Z,36.90
2018-06-04T13:55:02.578Z,36.30
2018-06-04T13:57:33.404Z,36.70
2018-06-04T14:00:04.214Z,36.30
2018-06-04T14:02:34.854Z,37.20
2018-06-04T14:05:05.635Z,37.10
2018-06-04T14:10:06.457Z,37.20
2018-06-04T14:12:37.132Z,37.50
2018-06-04T14:15:08.015Z,36.70
2018-06-04T14:17:38.632Z,36.60
2018-06-04T14:20:09.304Z,36.30
2018-06-04T14:22:40.102Z,36.90
2018-06-04T14:25:10.928Z,36.50
2018-06-04T14:27:41.666Z,36.40
2018-06-04T14:30:12.391Z,36.40
2018-06-04T14:32:43.171Z,36.60
2018-06-04T14:35:13.900Z,36.30
2018-06-04T14:37:44.737Z,37.20
2018-06-04T14:40:15.440Z,37.50
2018-06-04T14:42:46.122Z,37.20
2018-06-04T14:45:16.893Z,37.20
2018-06-04T14:47:47.488Z,38.40
2018-06-04T14:50:18.267Z,38.00
2018-06-04T14:52:49.095Z,37.70
2018-06-04T14:55:19.725Z,37.70
2018-06-04T14:57:50.510Z,37.50
2018-06-04T15:00:21.175Z,36.40
2018-06-04T15:02:51.901Z,36.40
2018-06-04T15:05:23.090Z,36.90
2018-06-04T15:07:53.787Z,37.30
2018-06-04T15:10:24.561Z,36.40
2018-06-04T15:13:05.013Z,36.00
2018-06-04T15:15:36.112Z,36.60
2018-06-04T15:18:06.979Z,37.20
2018-06-04T15:20:37.989Z,38.20
2018-06-04T15:23:08.765Z,37.80
2018-06-04T15:25:59.468Z,37.50
2018-06-04T15:28:30.253Z,37.30
2018-06-04T15:31:00.940Z,36.10
2018-06-04T15:33:31.595Z,36.90
2018-06-04T15:36:02.412Z,36.90
2018-06-04T15:38:33.138Z,36.50
2018-06-04T15:41:03.951Z,36.40
2018-06-04T15:43:34.724Z,35.60
2018-06-04T15:46:05.548Z,36.40
2018-06-04T15:48:36.295Z,36.00
2018-06-04T15:51:07.185Z,34.90
2018-06-04T15:59:52.896Z,35.80
2018-06-04T16:02:23.672Z,35.70
2018-06-04T16:04:54.411Z,36.70
2018-06-04T16:07:25.179Z,36.20
2018-06-04T16:16:05.673Z,37.50
2018-06-04T16:18:36.715Z,37.10
2018-06-04T16:21:07.558Z,37.00
2018-06-04T16:23:38.292Z,37.20
2018-06-04T16:26:09.109Z,36.50
2018-06-04T16:31:09.869Z,36.50
2018-06-04T16:33:41.600Z,36.40
2018-06-04T16:36:12.654Z,37.00
2018-06-04T16:38:43.340Z,36.60
2018-06-04T16:41:14.506Z,36.40
2018-06-04T16:43:48.991Z,35.60
2018-06-04T16:46:19.737Z,34.90
2018-06-04T16:48:50.608Z,33.90
2018-06-04T16:51:21.449Z,32.40
2018-06-04T16:53:57.235Z,31.50
2018-06-04T16:56:28.102Z,31.60
2018-06-04T16:58:58.900Z,30.70
2018-06-04T17:01:29.530Z,29.90
2018-06-04T17:04:00.847Z,29.40
2018-06-04T17:06:31.639Z,28.50
2018-06-04T17:09:02.555Z,27.00
2018-06-04T17:11:33.369Z,25.90
2018-06-04T17:14:04.146Z,24.80
2018-06-04T17:19:29.447Z,23.70
2018-06-04T17:22:00.565Z,23.50
2018-06-04T17:24:31.630Z,23.10
2018-06-04T17:27:02.359Z,22.70
2018-06-04T17:29:33.331Z,22.70
2018-06-04T17:32:04.167Z,23.10
2018-06-04T17:34:56.406Z,24.10
2018-06-04T17:37:27.338Z,24.20
2018-06-04T17:39:58.080Z,25.30
2018-06-04T17:42:28.867Z,25.20
2018-06-04T17:45:03.826Z,25.70
2018-06-04T17:47:34.580Z,25.70
2018-06-04T17:50:05.471Z,25.70
2018-06-04T17:52:36.233Z,27.40
2018-06-04T17:55:06.979Z,28.20
2018-06-04T17:57:49.580Z,28.70
2018-06-04T18:00:26.034Z,29.60
2018-06-04T18:02:56.831Z,30.50
2018-06-04T18:05:27.497Z,31.50
2018-06-04T18:07:58.444Z,32.80
2018-06-04T18:10:33.182Z,34.60
2018-06-04T18:13:03.988Z,36.60
2018-06-04T18:15:34.777Z,38.40
2018-06-04T18:18:05.819Z,39.60
2018-06-04T18:20:36.502Z,40.10
2018-06-04T18:23:07.323Z,40.70
2018-06-04T18:25:38.028Z,41.30
2018-06-04T18:28:08.944Z,42.80
2018-06-04T18:30:39.656Z,43.40
2018-06-04T18:33:10.359Z,43.70
2018-06-04T18:35:41.023Z,44.10
2018-06-04T18:38:11.742Z,44.50
2018-06-04T18:46:59.549Z,45.70
2018-06-04T18:49:30.267Z,46.20
2018-06-04T18:52:01.078Z,46.70
2018-06-04T18:54:32.821Z,47.00
2018-06-04T18:57:03.610Z,47.40
2018-06-04T18:59:34.383Z,47.90
2018-06-04T19:02:05.070Z,48.20
2018-06-04T19:07:36.226Z,49.00
2018-06-04T19:10:06.956Z,49.50
2018-06-04T19:12:44.045Z,50.00
2018-06-04T19:15:15.780Z,50.40
2018-06-04T19:17:52.859Z,50.70
2018-06-04T19:23:18.623Z,51.20
2018-06-04T19:25:49.460Z,51.50
2018-06-04T19:28:20.414Z,51.90
2018-06-04T19:30:51.135Z,52.10
2018-06-04T19:33:21.981Z,52.20
2018-06-04T19:35:52.858Z,52.40
2018-06-04T19:38:23.645Z,52.50
2018-06-04T19:40:54.361Z,52.70
2018-06-04T19:46:37.607Z,52.80
2018-06-04T19:49:08.283Z,53.10
2018-06-04T19:51:39.148Z,53.40
2018-06-04T19:54:09.484Z,53.50
2018-06-04T19:56:40.111Z,53.70
2018-06-04T19:59:10.966Z,54.00
2018-06-04T20:01:41.740Z,53.90
2018-06-04T20:04:12.585Z,54.10
2018-06-04T20:06:44.702Z,54.30
2018-06-04T20:09:18.115Z,54.50
2018-06-04T20:11:48.940Z,54.50
2018-06-04T20:14:22.718Z,54.60
2018-06-04T20:16:53.460Z,54.90
2018-06-04T20:19:24.119Z,55.20
2018-06-04T20:22:09.099Z,55.40
2018-06-04T20:24:39.798Z,55.50
2018-06-04T20:27:10.552Z,55.60
2018-06-04T20:29:41.385Z,55.80
2018-06-04T20:32:12.125Z,55.80
2018-06-04T20:34:43.155Z,56.20
2018-06-04T20:37:14.117Z,56.20
2018-06-04T20:39:46.696Z,56.20
2018-06-04T20:42:18.816Z,56.20
2018-06-04T20:44:49.529Z,56.20
2018-06-04T20:47:20.268Z,56.10
2018-06-04T20:49:50.963Z,56.20
2018-06-04T20:52:21.645Z,56.10
2018-06-04T20:54:52.444Z,56.70
2018-06-04T20:57:23.104Z,56.10
2018-06-04T20:59:53.928Z,56.20
2018-06-04T21:02:24.594Z,56.10
2018-06-04T21:04:55.229Z,56.80
2018-06-04T21:07:25.844Z,56.30
2018-06-04T21:09:56.594Z,56.60
2018-06-04T21:12:34.849Z,56.80
2018-06-04T21:15:05.660Z,56.90
2018-06-04T21:17:36.402Z,57.20
2018-06-04T21:20:07.078Z,57.30
2018-06-04T21:22:37.840Z,57.30
2018-06-04T21:25:19.778Z,57.30
2018-06-04T21:27:50.576Z,57.30
2018-06-04T21:30:21.571Z,57.30
2018-06-04T21:32:52.333Z,57.30
2018-06-04T21:35:23.188Z,57.90
2018-06-04T21:37:53.965Z,58.30
2018-06-04T21:40:24.623Z,59.10
2018-06-04T21:42:55.319Z,59.90
2018-06-04T21:45:26.080Z,60.40
2018-06-04T21:51:06.108Z,61.00
2018-06-04T21:53:36.782Z,61.80
2018-06-04T21:56:07.598Z,61.90
2018-06-04T21:58:38.403Z,62.00
2018-06-04T22:01:22.805Z,63.00
2018-06-04T22:03:53.625Z,63.40
2018-06-04T22:06:24.471Z,64.00
2018-06-04T22:08:55.363Z,64.50
2018-06-04T22:11:25.981Z,64.50
2018-06-04T22:13:56.655Z,65.60
2018-06-04T22:16:27.471Z,65.40
2018-06-04T22:18:58.209Z,65.70
2018-06-04T22:24:47.060Z,70.90
2018-06-04T22:27:17.763Z,72.70
2018-06-04T22:29:48.457Z,73.60
2018-06-04T22:32:19.285Z,74.80
2018-06-04T22:34:50.024Z,75.10
2018-06-04T22:37:20.776Z,76.40
2018-06-04T22:39:51.499Z,76.60
2018-06-04T22:42:22.345Z,77.20
2018-06-04T22:44:53.093Z,78.40
2018-06-04T22:47:23.803Z,78.90
2018-06-04T22:49:54.532Z,78.80
2018-06-04T22:52:25.269Z,79.30
2018-06-04T22:54:55.975Z,80.10
2018-06-04T22:57:26.816Z,80.50
2018-06-04T23:00:03.503Z,80.30
2018-06-04T23:02:34.010Z,80.00
2018-06-04T23:05:04.794Z,80.90
2018-06-04T23:07:35.447Z,80.20
2018-06-04T23:10:06.245Z,80.80
2018-06-04T23:12:37.946Z,79.20
2018-06-04T23:15:08.666Z,80.10
2018-06-04T23:17:39.347Z,79.10
2018-06-04T23:20:10.114Z,77.00
2018-06-04T23:22:40.792Z,75.00
2018-06-04T23:25:11.672Z,77.20
2018-06-04T23:27:42.387Z,78.60
2018-06-04T23:30:36.796Z,78.40
2018-06-04T23:33:07.673Z,77.90
2018-06-04T23:35:38.631Z,76.20
2018-06-04T23:38:09.503Z,75.20
2018-06-04T23:40:40.223Z,75.00
2018-06-04T23:43:10.904Z,75.30
2018-06-04T23:45:49.856Z,74.50
2018-06-04T23:48:20.669Z,74.40
2018-06-04T23:50:51.369Z,74.60
2018-06-04T23:53:22.186Z,75.00
2018-06-04T23:55:52.869Z,74.20
2018-06-04T23:58:23.669Z,74.20
